Port Dover, Canada
Current Conditions -  °F | °C
As of 5:00 PM on Friday 31 Oct 2014 (Local Time) from CYHM Reporting Station
Light Rain Light Rain  
Wind Chill: 39°   Ceiling: 700
Heat Index: 43°   Visibility: 6mi
Dew Point: 41°   Wind: 6mph
Humidity: 93%   Direction: 30°NNE
Pressure: 29.89"   Gusts: NA
Location:  42.78°N, 80.2°W
Report Text: CYHM 312100Z 03005KT 6SM -RA BR BKN007 OVC016 06/05 A2989 RMK CU5SC3 SLP128
Loading
Personal Weather Stations






























Interactive Weather Map
Tropical Storm Tracking
New forecast layout! Learn more

10-Day Weather Forecast

Advertisements
Track Severe Weather on mobile